Latest Coastal Weather Observations for Rhyll

IDV60701

Issued at 4:05 pm EST Sunday 21 September 2014 (issued every 10 minutes, with the page automatically refreshed every 10 minutes)

About coastal observations | Map of coastal stations | Coastal observations for VIC | Marine services | Other Formats
Station Details ID: 086373 Name: RHYLL Lat: -38.46 Lon: 145.31 Height: 13.4 m
Data from the previous 72 hours. | See also: Recent months at Rhyll
Date/Time
EST
Temp

°C
Wind Pressure Rain
since 9am
mm
Weather Cloud Vis
km
Sea
Height
m
Swell
Dir
 
Speed
knots
Gust
knots
hPa Trend Height
m
Period
s
Dir
21/04:00pm 14.4 S 5 9 1030.0 - 0.0 - - - - - - -
21/03:30pm 15.0 S 5 9 1030.1 - 0.0 - - - - - - -
21/03:00pm 15.6 S 5 10 1030.2 - 0.0 - - - - - - -
21/02:30pm 15.5 SSW 3 6 1030.3 - 0.0 - - - - - - -
21/02:00pm 15.7 S 4 6 1030.5 - 0.0 - - - - - - -
21/01:30pm 15.9 S 4 7 1030.7 - 0.0 - - - - - - -
21/01:00pm 16.0 S 4 6 1031.0 - 0.0 - - - - - - -
21/12:30pm 15.8 SSE 2 6 1031.5 - 0.0 - - - - - - -
21/12:00pm 14.0 SSW 4 8 1031.8 - 0.0 - - - - - - -
21/11:30am 15.6 S 3 6 1032.0 - 0.0 - - - - - - -
21/11:00am 15.0 S 2 5 1032.2 - 0.0 - - - - - - -
21/10:30am 14.1 S 2 4 1032.2 - 0.0 - - - - - - -
21/10:00am 13.7 CALM 0 2 1032.3 - 0.0 - - - - - - -
21/09:30am 13.5 ESE 1 2 1032.2 - 0.0 - - - - - - -
21/09:00am 13.8 E 2 3 1032.0 - 0.0 - - - - - - -
21/08:30am 13.3 E 4 5 1031.6 - 0.0 - - - - - - -
21/08:00am 12.5 ENE 3 4 1031.4 - 0.0 - - - - - - -
21/07:30am 11.8 NE 3 4 1031.1 - 0.0 - - - - - - -
21/07:00am 11.2 E 3 4 1031.0 - 0.0 - - - - - - -
21/06:30am 11.1 E 4 5 1030.8 - 0.0 - - - - - - -
21/06:00am 11.3 E 4 6 1030.5 - 0.0 - - - - - - -
21/05:30am 11.6 E 3 6 1030.2 - 0.0 - - - - - - -
21/05:00am 11.6 SW 2 2 1029.9 - 0.0 - - - - - - -
21/04:30am 11.7 SSW 3 5 1029.8 - 0.0 - - - - - - -
21/04:00am 11.8 SW 2 4 1029.7 - 0.0 - - - - - - -
21/03:30am 12.1 SSW 4 7 1029.7 - 0.0 - - - - - - -
21/03:00am 12.0 SSW 3 6 1029.5 - 0.0 - - - - - - -
21/02:30am 11.9 SSW 4 7 1029.8 - 0.0 - - - - - - -
21/02:00am 12.0 SSW 3 6 1030.1 - 0.0 - - - - - - -
21/01:30am 12.1 SSW 6 10 1030.2 - 0.0 - - - - - - -
21/01:00am 12.0 SW 3 6 1030.3 - 0.0 - - - - - - -
21/12:30am 12.0 S 3 4 1030.2 - 0.0 - - - - - - -
21/12:00am 12.1 SSW 3 6 1030.1 - 0.0 - - - - - - -
 
Date/Time
EST
Temp

°C
Wind Pressure Rain
since 9am
mm
Weather Cloud Vis
km
Sea
Height
m
Swell
Dir
 
Speed
knots
Gust
knots
hPa Trend Height
m
Period
s
Dir
20/11:30pm 11.9 S 3 5 1030.3 - 0.0 - - - - - - -
20/11:00pm 11.8 S 4 6 1030.2 - 0.0 - - - - - - -
20/10:30pm 11.7 S 2 4 1030.1 - 0.0 - - - - - - -
20/10:00pm 11.8 S 3 5 1030.2 - 0.0 - - - - - - -
20/09:30pm 11.9 S 4 5 1030.2 - 0.0 - - - - - - -
20/09:00pm 11.9 S 3 6 1030.1 - 0.0 - - - - - - -
20/08:30pm 12.0 S 3 6 1030.2 - 0.0 - - - - - - -
20/08:00pm 12.3 S 5 8 1030.4 - 0.0 - - - - - - -
20/07:30pm 12.2 S 4 7 1030.1 - 0.0 - - - - - - -
20/07:00pm 12.1 S 4 6 1029.7 - 0.0 - - - - - - -
20/06:30pm 12.2 S 4 6 1029.4 - 0.0 - - - - - - -
20/06:00pm 12.4 S 5 10 1029.2 - 0.0 - - - - - - -
20/05:30pm 12.4 S 7 11 1028.8 - 0.0 - - - - - - -
20/05:00pm 12.7 S 7 11 1028.6 - 0.0 - - - - - - -
20/04:30pm 13.0 S 8 12 1028.3 - 0.0 - - - - - - -
20/04:00pm 13.0 S 6 10 1028.1 - 0.0 - - - - - - -
20/03:30pm 12.7 S 7 14 1027.9 - 0.0 - - - - - - -
20/03:00pm 13.4 S 7 12 1027.6 - 0.0 - - - - - - -
20/02:30pm 13.7 S 7 13 1027.7 - 0.0 - - - - - - -
20/02:00pm 13.5 SSW 8 13 1027.5 - 0.0 - - - - - - -
20/01:30pm 12.9 SW 10 14 1027.5 - 0.0 - - - - - - -
20/01:00pm 15.2 S 6 10 1027.6 - 0.0 - - - - - - -
20/12:30pm 14.2 S 5 8 1027.8 - 0.0 - - - - - - -
20/12:00pm 14.1 SSW 8 14 1027.8 - 0.0 - - - - - - -
20/11:30am 13.1 S 8 14 1027.9 - 0.0 - - - - - - -
20/11:00am 13.2 S 6 13 1028.0 - 0.0 - - - - - - -
20/10:30am 12.6 S 8 16 1028.1 - 0.0 - - - - - - -
20/10:00am 13.2 S 7 14 1028.0 - 0.0 - - - - - - -
20/09:30am 13.2 S 8 14 1028.0 - 0.0 - - - - - - -
20/09:00am 12.2 SSW 7 12 1027.9 - 2.0 Recent precip. - - - - - -
20/08:30am 11.3 S 5 10 1027.6 - 2.0 - - - - - - -
20/08:00am 10.7 SSW 9 15 1027.6 - 1.8 - - - - - - -
20/07:30am 11.2 SW 9 14 1027.2 - 1.8 - - - - - - -
20/07:00am 11.0 S 6 9 1026.7 - 1.8 - - - - - - -
20/06:30am 10.8 S 9 15 1026.4 - 1.8 - - - - - - -
20/06:00am 10.9 SW 5 8 1026.0 - 1.8 - - - - - - -
20/05:30am 10.9 SSW 6 11 1025.5 - 1.8 - - - - - - -
20/05:00am 10.5 WSW 5 8 1025.1 - 1.8 - - - - - - -
20/04:30am 10.5 WSW 6 10 1024.9 - 1.8 - - - - - - -
20/04:00am 11.1 SW 5 13 1024.8 - 1.4 - - - - - - -
20/03:30am 10.9 WSW 3 6 1024.8 - 1.4 - - - - - - -
20/03:00am 10.9 WSW 5 9 1024.7 - 1.4 - - - - - - -
20/02:30am 11.2 SW 6 9 1024.8 - 1.4 - - - - - - -
20/02:00am 10.7 SW 6 9 1024.9 - 1.4 - - - - - - -
20/01:30am 10.7 SW 5 8 1025.2 - 1.4 - - - - - - -
20/01:00am 11.0 SW 4 6 1025.2 - 1.4 - - - - - - -
20/12:30am 11.4 SW 5 8 1025.0 - 1.4 - - - - - - -
20/12:00am 10.9 WSW 5 10 1024.9 - 1.4 - - - - - - -
 
Date/Time
EST
Temp

°C
Wind Pressure Rain
since 9am
mm
Weather Cloud Vis
km
Sea
Height
m
Swell
Dir
 
Speed
knots
Gust
knots
hPa Trend Height
m
Period
s
Dir
19/11:30pm 10.7 WSW 4 7 1025.1 - 1.4 - - - - - - -
19/11:00pm 11.2 WSW 6 11 1025.3 - 1.4 - - - - - - -
19/10:30pm 11.1 WSW 4 6 1025.4 - 1.4 - - - - - - -
19/10:00pm 10.8 W 5 9 1025.6 - 1.4 - - - - - - -
19/09:30pm 11.1 WSW 6 10 1025.5 - 1.4 - - - - - - -
19/09:00pm 11.6 WSW 4 7 1025.3 - 1.4 - - - - - - -
19/08:30pm 11.3 WSW 5 10 1025.2 - 1.4 - - - - - - -
19/08:00pm 11.5 WSW 6 10 1025.2 - 1.4 - - - - - - -
19/07:30pm 11.4 WSW 5 9 1024.9 - 1.4 - - - - - - -
19/07:00pm 11.6 SW 6 10 1024.6 - 1.4 - - - - - - -
19/06:30pm 12.0 SW 6 11 1024.3 - 1.4 - - - - - - -
19/06:00pm 12.0 WSW 6 10 1024.3 - 1.4 - - - - - - -
19/05:30pm 12.4 SW 7 11 1024.0 - 1.4 - - - - - - -
19/05:00pm 13.0 SW 7 12 1023.8 - 1.4 - - - - - - -
19/04:30pm 13.5 SW 8 15 1023.7 - 1.4 - - - - - - -
19/04:00pm 13.6 SW 9 16 1023.6 - 1.4 - - - - - - -
19/03:30pm 13.8 SW 10 16 1023.4 - 1.4 - - - - - - -
19/03:00pm 13.9 SW 10 15 1023.4 - 1.4 - - - - - - -
19/02:30pm 13.4 SW 9 16 1023.6 - 1.4 - - - - - - -
19/02:00pm 13.8 SW 10 16 1023.5 - 1.4 - - - - - - -
19/01:30pm 14.1 SSW 6 12 1023.7 - 1.4 - - - - - - -
19/01:00pm 12.9 SW 4 9 1023.9 - 1.4 - - - - - - -
19/12:30pm 11.9 WSW 6 10 1024.2 - 1.2 - - - - - - -
19/12:00pm 11.9 W 6 9 1024.2 - 1.2 - - - - - - -
19/11:30am 13.1 SW 7 12 1024.2 - 1.2 - - - - - - -
19/11:00am 11.5 WSW 10 18 1024.4 - 1.2 - - - - - - -
19/10:30am 12.0 SW 6 10 1024.4 - 1.2 - - - - - - -
19/10:00am 10.8 SW 5 8 1024.6 - 1.2 - - - - - - -
19/09:30am 10.5 SW 7 12 1024.7 - 0.8 - - - - - - -
19/09:00am 10.7 SW 2 4 1024.7 - 2.4 Rain - - - - - -
19/08:30am 10.7 SW 7 10 1024.5 - 1.6 - - - - - - -
19/08:00am 10.4 SW 10 14 1024.3 - 1.4 - - - - - - -
19/07:30am 10.6 WNW 3 4 1024.0 - 1.4 - - - - - - -
19/07:00am 10.2 W 3 5 1023.7 - 1.4 - - - - - - -
19/06:30am 10.1 WSW 4 7 1023.5 - 1.4 - - - - - - -
19/06:00am 10.0 WSW 5 10 1023.4 - 1.4 Recent precip. - - - - - -
19/05:30am 9.5 NW 3 6 1023.2 - 1.2 - - - - - - -
19/05:00am 9.7 WNW 4 6 1023.0 - 1.2 - - - - - - -
19/04:30am 9.0 WNW 4 8 1023.0 - 1.2 - - - - - - -
19/04:00am 9.5 W 4 8 1023.0 - 1.2 - - - - - - -
19/03:30am 9.6 NW 3 4 1022.8 - 1.2 - - - - - - -
19/03:00am 9.1 W 5 7 1023.0 - 1.2 - - - - - - -
19/02:30am 9.0 W 4 6 1023.2 - 1.2 - - - - - - -
19/02:00am 8.7 WNW 2 4 1023.4 - 1.2 - - - - - - -
19/01:30am 9.3 W 4 7 1023.7 - 1.2 - - - - - - -
19/01:00am 10.1 W 3 5 1023.8 - 1.0 - - - - - - -
19/12:30am 9.8 W 4 6 1023.9 - 1.0 - - - - - - -
19/12:00am 9.8 W 3 5 1024.0 - 1.0 - - - - - - -
 
Date/Time
EST
Temp

°C
Wind Pressure Rain
since 9am
mm
Weather Cloud Vis
km
Sea
Height
m
Swell
Dir
 
Speed
knots
Gust
knots
hPa Trend Height
m
Period
s
Dir
18/11:30pm 10.5 W 3 5 1024.1 - 1.0 - - - - - - -
18/11:00pm 10.9 WSW 3 6 1024.4 - 1.0 - - - - - - -
18/10:30pm 10.7 SW 3 7 1024.4 - 1.0 - - - - - - -
18/10:00pm 10.8 SW 4 7 1024.4 - 1.0 - - - - - - -
18/09:30pm 10.4 SW 6 9 1024.4 - 1.0 - - - - - - -
18/09:00pm 11.1 SW 6 12 1024.3 - 1.0 - - - - - - -
18/08:30pm 11.3 SW 7 13 1024.0 - 1.0 - - - - - - -
18/08:00pm 10.9 WSW 4 8 1024.0 - 1.0 - - - - - - -
18/07:30pm 10.6 WSW 5 8 1023.8 - 1.0 - - - - - - -
18/07:00pm 10.8 SW 7 13 1023.8 - 1.0 - - - - - - -
18/06:30pm 10.8 WSW 7 13 1023.6 - 1.0 - - - - - - -
18/06:00pm 11.1 SW 9 14 1023.3 - 1.0 - - - - - - -
18/05:30pm 11.3 SW 8 13 1023.0 - 1.0 - - - - - - -
18/05:00pm 11.9 SW 10 16 1022.8 - 1.0 - - - - - - -
18/04:30pm 12.4 SW 9 16 1022.6 - 1.0 - - - - - - -

Other Formats:

Comma delimited format used in spreadsheet applications
http://www.bom.gov.au/fwo/IDV60701/IDV60701.94892.axf

JavaScript Object Notation format (JSON) in row-major order
http://www.bom.gov.au/fwo/IDV60701/IDV60701.94892.json